Cadyville, New York
Current Conditions -  °F | °C
As of 3:53 PM on Thursday 20 Nov 2014 (Local Time) from KPBG Reporting Station
Scattered Clouds Scattered Clouds  
Wind Chill: 23°   Ceiling: Unl
Heat Index: 29°   Visibility: 10mi
Dew Point: 18°   Wind: 6mph
Humidity: 64%   Direction: NA
Pressure: 29.76"   Gusts: 22mph
Location:  44.7°N, 73.63°W
Report Text: KPBG 202053Z AUTO VRB05G19KT 10SM SCT041 M02/M08 A2976 RMK AO2 SLP082 60000 T10171078 53011
Loading
Personal Weather Stations






























Interactive Weather Map New forecast layout! Learn more

10-Day Weather Forecast

Advertisements
Track Severe Weather on mobile